Time;durP1;ratioP1;P1;durP2;ratioP2;P2;SDS_P1;SDS_P2;PMS_P1;PMS_P2;Temp;Humidity;BMP_temperature;BMP_pressure;BME280_temperature;BME280_humidity;BME280_pressure;Samples;Min_cycle;Max_cycle;Signal;HPM_P1;HPM_P2
2021/08/02 00:01:03;;;;;;;6.78;4.68;;;;;;;16.65;77.49;99961.09;4962160;28;20043;-74
2021/08/02 00:03:45;;;;;;;6.43;5.30;;;;;;;16.64;77.19;99955.84;4958308;28;20074;-74
2021/08/02 00:06:15;;;;;;;6.70;4.82;;;;;;;16.63;77.19;99956.75;4961631;28;20043;-74
2021/08/02 00:08:40;;;;;;;6.03;5.03;;;;;;;16.58;77.31;99956.06;4964196;28;20038;-74
2021/08/02 00:11:06;;;;;;;5.95;4.97;;;;;;;16.49;77.75;99960.00;4960740;28;20031;-75
2021/08/02 00:13:35;;;;;;;8.45;5.28;;;;;;;16.43;78.21;99970.91;4959691;28;20043;-74
2021/08/02 00:16:03;;;;;;;7.35;5.00;;;;;;;16.40;77.97;99961.22;4957460;28;20047;-74
2021/08/02 00:18:31;;;;;;;7.88;5.20;;;;;;;16.39;78.08;99966.59;4963508;28;20122;-74
2021/08/02 00:20:58;;;;;;;5.72;4.60;;;;;;;16.32;78.52;99973.09;4961728;28;20450;-75
2021/08/02 00:23:25;;;;;;;6.22;5.03;;;;;;;16.28;78.23;99972.34;4962631;28;20085;-74
2021/08/02 00:25:53;;;;;;;9.57;4.63;;;;;;;16.23;78.56;99974.31;4947577;28;20031;-74
2021/08/02 00:28:20;;;;;;;6.15;4.72;;;;;;;16.11;79.25;99981.00;4965721;28;20038;-74
2021/08/02 00:30:46;;;;;;;5.22;4.72;;;;;;;16.06;78.86;99979.41;4965891;28;20039;-74
2021/08/02 00:33:11;;;;;;;6.22;5.32;;;;;;;15.99;79.63;99992.09;4965320;28;20038;-74
2021/08/02 00:35:45;;;;;;;5.60;5.00;;;;;;;15.94;79.75;99986.06;4965966;28;20030;-74
2021/08/02 00:38:18;;;;;;;7.93;5.38;;;;;;;15.83;80.34;99986.47;4963982;28;20138;-74
2021/08/02 00:40:46;;;;;;;9.63;5.90;;;;;;;15.74;80.72;99992.97;4962137;28;20533;-74
2021/08/02 00:43:29;;;;;;;6.65;5.88;;;;;;;15.67;80.97;99991.44;4966170;28;20130;-74
2021/08/02 00:45:55;;;;;;;6.40;4.97;;;;;;;15.60;81.40;99986.38;4967462;28;20027;-74
2021/08/02 00:48:27;;;;;;;6.75;5.40;;;;;;;15.55;81.51;99987.41;4960174;28;20037;-74
2021/08/02 00:50:59;;;;;;;6.45;5.65;;;;;;;15.52;82.13;99997.28;4965195;28;20038;-74
2021/08/02 00:53:27;;;;;;;8.95;5.93;;;;;;;15.41;82.77;99996.81;4965540;28;20035;-74
2021/08/02 00:55:59;;;;;;;8.20;5.90;;;;;;;15.41;82.67;100002.13;4965184;28;20046;-75
2021/08/02 00:58:30;;;;;;;6.47;5.15;;;;;;;15.38;82.80;99996.88;4951213;28;20031;-74
2021/08/02 01:00:56;;;;;;;9.05;5.95;;;;;;;15.33;83.05;100008.56;4972176;28;20111;-74
2021/08/02 01:03:28;;;;;;;8.05;6.90;;;;;;;15.38;82.48;100011.06;4963588;28;20149;-74
2021/08/02 01:05:54;;;;;;;7.83;5.73;;;;;;;15.40;82.39;100009.19;4970409;28;20038;-74
2021/08/02 01:08:35;;;;;;;9.18;6.22;;;;;;;15.51;81.86;100011.50;4950689;28;20119;-74
2021/08/02 01:11:06;;;;;;;6.55;5.57;;;;;;;15.65;81.49;100011.91;4963553;28;20035;-74
2021/08/02 01:13:37;;;;;;;7.30;6.60;;;;;;;15.71;81.25;100009.03;4958273;28;20043;-74
2021/08/02 01:16:06;;;;;;;6.95;6.25;;;;;;;15.71;81.27;100008.19;4962454;28;20038;-74
2021/08/02 01:18:36;;;;;;;7.32;5.40;;;;;;;15.72;81.02;100005.47;4963915;28;20046;-74
2021/08/02 01:21:05;;;;;;;7.20;6.03;;;;;;;15.82;80.72;100005.13;4965832;28;20036;-74
2021/08/02 01:23:32;;;;;;;7.28;5.38;;;;;;;15.89;80.21;99998.66;4968962;28;20035;-74
2021/08/02 01:25:58;;;;;;;7.05;5.55;;;;;;;15.89;80.19;99999.53;4965843;28;20038;-74
2021/08/02 01:28:25;;;;;;;7.03;5.65;;;;;;;15.88;80.49;100004.94;4966596;28;20030;-74
2021/08/02 01:30:55;;;;;;;8.55;5.82;;;;;;;15.83;80.80;100006.88;4962788;28;20054;-74
2021/08/02 01:33:30;;;;;;;8.18;5.80;;;;;;;15.87;80.61;100013.81;4949297;28;20027;-74
2021/08/02 01:36:04;;;;;;;9.15;5.55;;;;;;;15.86;80.58;100012.94;4963763;28;20436;-74
2021/08/02 01:38:32;;;;;;;7.30;5.65;;;;;;;15.86;80.55;100012.94;4965617;28;20049;-74
2021/08/02 01:41:03;;;;;;;10.13;6.07;;;;;;;15.81;80.97;100014.03;4961812;28;20058;-74
2021/08/02 01:43:29;;;;;;;8.75;6.60;;;;;;;15.78;81.26;100021.22;4958368;28;20027;-74
2021/08/02 01:46:08;;;;;;;7.47;6.18;;;;;;;15.89;80.85;100028.81;4965472;28;20031;-74
2021/08/02 01:49:02;;;;;;;7.60;6.55;;;;;;;15.86;80.89;100022.72;4964388;28;20120;-74
2021/08/02 01:51:47;;;;;;;7.85;6.18;;;;;;;15.86;81.25;100022.72;4963490;28;20394;-74
2021/08/02 01:54:39;;;;;;;6.95;6.25;;;;;;;15.89;80.93;100033.25;4942911;29;20042;-75
2021/08/02 01:57:53;;;;;;;7.22;6.07;;;;;;;15.89;81.05;100035.91;4960245;28;20046;-74
2021/08/02 02:00:41;;;;;;;7.18;5.90;;;;;;;15.94;80.59;100031.31;4960363;28;20039;-74
2021/08/02 02:03:12;;;;;;;7.95;5.95;;;;;;;15.90;80.95;100034.97;4963753;28;20039;-74
2021/08/02 02:05:48;;;;;;;8.18;5.55;;;;;;;15.92;80.92;100027.81;4958643;28;20028;-74
2021/08/02 02:08:19;;;;;;;7.90;6.17;;;;;;;15.96;80.75;100016.16;4963703;28;20035;-74
2021/08/02 02:10:51;;;;;;;13.25;6.43;;;;;;;16.04;80.54;100013.22;4963863;28;20117;-75
2021/08/02 02:13:24;;;;;;;7.47;6.20;;;;;;;16.08;80.22;100017.47;4961867;28;20035;-74
2021/08/02 02:15:53;;;;;;;8.95;6.07;;;;;;;16.10;80.11;100018.31;4958268;28;20039;-74
2021/08/02 02:18:21;;;;;;;7.25;5.63;;;;;;;16.11;80.23;100018.25;4964177;28;20027;-74
2021/08/02 02:20:49;;;;;;;9.63;6.43;;;;;;;16.13;80.24;100026.16;4963155;28;20063;-74
2021/08/02 02:23:17;;;;;;;9.10;6.80;;;;;;;16.12;80.48;100029.78;4963185;28;20043;-74
2021/08/02 02:25:43;;;;;;;8.85;7.95;;;;;;;16.21;80.25;100024.94;4962787;28;20031;-74
2021/08/02 02:28:17;;;;;;;8.07;7.20;;;;;;;16.27;80.00;100017.66;4958564;28;20023;-74
2021/08/02 02:30:44;;;;;;;9.25;6.93;;;;;;;16.31;80.00;100030.81;4962765;28;20035;-74
2021/08/02 02:33:14;;;;;;;6.97;6.28;;;;;;;16.35;79.41;100021.78;4965402;28;20027;-74
2021/08/02 02:35:42;;;;;;;9.57;6.90;;;;;;;16.35;79.66;100026.25;4958417;28;20035;-74
2021/08/02 02:38:10;;;;;;;8.05;6.68;;;;;;;16.37;79.45;100030.59;4963909;28;20030;-74
2021/08/02 02:40:43;;;;;;;7.30;5.85;;;;;;;16.38;79.56;100036.78;4962557;28;20027;-74
2021/08/02 02:43:11;;;;;;;8.50;7.30;;;;;;;16.43;79.15;100040.13;4963198;28;20066;-75
2021/08/02 02:45:37;;;;;;;8.18;6.75;;;;;;;16.46;79.08;100040.03;4961625;28;20701;-74
2021/08/02 02:48:04;;;;;;;9.00;6.18;;;;;;;16.48;78.92;100035.50;4964053;28;20155;-75
2021/08/02 02:50:33;;;;;;;7.85;6.40;;;;;;;16.46;79.16;100034.69;4963024;28;20077;-75
2021/08/02 02:53:02;;;;;;;8.48;6.38;;;;;;;16.49;78.84;100042.56;4966110;28;20035;-74
2021/08/02 02:55:30;;;;;;;9.90;6.15;;;;;;;16.44;78.82;100041.88;4944357;28;20175;-75
2021/08/02 02:57:56;;;;;;;8.60;6.88;;;;;;;16.32;79.45;100056.53;4958600;28;20072;-75
2021/08/02 03:00:23;;;;;;;8.32;6.57;;;;;;;16.31;79.38;100056.56;4978885;28;20396;-74
2021/08/02 03:02:52;;;;;;;8.85;6.40;;;;;;;16.32;79.36;100058.28;4968597;28;20037;-75
2021/08/02 03:05:21;;;;;;;7.57;6.50;;;;;;;16.32;79.44;100061.84;4962413;28;20478;-74
2021/08/02 03:07:51;;;;;;;9.80;6.53;;;;;;;16.29;79.52;100066.41;4963251;28;20117;-74
2021/08/02 03:10:21;;;;;;;10.20;6.60;;;;;;;16.38;79.25;100068.75;4963076;28;20039;-74
2021/08/02 03:12:48;;;;;;;10.95;7.53;;;;;;;16.36;79.34;100070.59;4960738;28;20079;-74
2021/08/02 03:15:14;;;;;;;10.27;6.90;;;;;;;16.38;79.28;100079.41;4964221;28;20094;-74
2021/08/02 03:17:39;;;;;;;8.77;6.90;;;;;;;16.32;79.44;100090.25;4961593;28;20446;-74
2021/08/02 03:20:05;;;;;;;9.30;7.07;;;;;;;16.33;78.98;100084.88;4956962;28;20040;-74
2021/08/02 03:22:39;;;;;;;8.55;7.30;;;;;;;16.30;79.73;100098.31;4964483;28;20077;-74
2021/08/02 03:25:18;;;;;;;9.82;6.40;;;;;;;16.36;79.30;100094.56;4958642;28;20035;-74
2021/08/02 03:27:59;;;;;;;9.95;6.63;;;;;;;16.40;79.16;100098.81;4962145;28;20051;-74
2021/08/02 03:30:27;;;;;;;11.77;6.90;;;;;;;16.36;79.32;100097.22;4959227;28;20050;-74
2021/08/02 03:32:54;;;;;;;10.65;7.47;;;;;;;16.38;78.91;100101.56;4963107;28;20086;-74
2021/08/02 03:35:19;;;;;;;9.02;6.50;;;;;;;16.40;78.72;100099.72;4962326;28;20043;-74
2021/08/02 03:37:48;;;;;;;10.38;6.97;;;;;;;16.37;78.93;100097.19;4961766;28;20093;-74
2021/08/02 03:40:16;;;;;;;8.88;6.88;;;;;;;16.41;78.80;100097.91;4963138;28;20086;-74
2021/08/02 03:42:43;;;;;;;7.63;6.00;;;;;;;16.45;78.63;100102.19;4962030;28;20126;-74
2021/08/02 03:45:09;;;;;;;8.98;5.45;;;;;;;16.44;78.37;100100.47;4963335;28;20520;-74
2021/08/02 03:47:35;;;;;;;7.47;5.10;;;;;;;16.38;78.60;100106.88;4955056;28;20034;-74
2021/08/02 03:50:01;;;;;;;6.28;4.95;;;;;;;16.24;79.04;100106.50;4960115;28;20402;-74
2021/08/02 03:52:26;;;;;;;5.47;4.45;;;;;;;16.12;79.51;100110.50;4962902;28;20382;-74
2021/08/02 03:54:51;;;;;;;7.80;4.95;;;;;;;16.07;79.92;100111.59;4960824;28;20035;-74
2021/08/02 04:01:09;;;;;;;5.50;3.75;;;;;;;15.89;80.46;100118.41;4974231;28;20049;-84
2021/08/02 04:03:35;;;;;;;6.68;4.53;;;;;;;15.93;80.63;100120.06;4989262;28;20038;-83
2021/08/02 04:06:01;;;;;;;6.88;4.18;;;;;;;15.95;80.21;100127.03;4974277;28;20389;-83
2021/08/02 04:08:27;;;;;;;4.78;3.47;;;;;;;15.93;80.56;100130.72;4971736;28;20073;-80
2021/08/02 04:10:53;;;;;;;8.60;4.05;;;;;;;15.93;80.28;100130.72;4992062;28;20493;-84
2021/08/02 04:13:19;;;;;;;5.78;4.10;;;;;;;15.98;80.11;100140.28;4975023;28;20069;-84
2021/08/02 04:15:45;;;;;;;5.10;4.05;;;;;;;16.01;80.31;100144.63;4975213;28;20026;-84
2021/08/02 04:18:10;;;;;;;6.88;3.90;;;;;;;16.02;80.03;100151.66;4988267;28;20073;-83
2021/08/02 04:20:36;;;;;;;5.47;4.45;;;;;;;16.02;80.30;100148.16;4972888;28;20038;-84
2021/08/02 04:23:01;;;;;;;4.95;4.07;;;;;;;16.02;80.72;100149.00;4989791;28;20054;-84
2021/08/02 04:25:26;;;;;;;6.40;3.88;;;;;;;16.09;80.38;100145.22;4973793;28;20035;-83
2021/08/02 04:27:52;;;;;;;11.55;8.07;;;;;;;16.11;80.25;100156.69;4994310;28;20042;-84
2021/08/02 04:30:18;;;;;;;7.07;4.72;;;;;;;16.14;80.45;100156.56;4979772;28;20056;-83
2021/08/02 04:32:45;;;;;;;7.80;4.88;;;;;;;16.17;79.95;100158.25;4996062;28;20066;-83
2021/08/02 04:35:10;;;;;;;9.63;4.60;;;;;;;16.23;79.89;100162.50;4976776;28;20122;-83
2021/08/02 04:37:36;;;;;;;7.10;5.68;;;;;;;16.17;80.19;100161.78;4993652;28;20081;-85
2021/08/02 04:40:01;;;;;;;8.23;4.72;;;;;;;16.18;80.08;100171.50;4994723;28;20039;-84
2021/08/02 04:42:26;;;;;;;5.63;4.28;;;;;;;16.20;80.16;100167.00;4985494;28;20038;-83
2021/08/02 04:44:52;;;;;;;7.28;4.53;;;;;;;16.25;79.99;100164.19;4991483;28;20039;-83
2021/08/02 04:47:17;;;;;;;6.45;4.20;;;;;;;16.36;79.38;100171.78;4976511;28;20031;-83
2021/08/02 04:49:43;;;;;;;6.40;4.82;;;;;;;16.30;79.60;100164.03;4972575;28;20049;-84
2021/08/02 04:52:08;;;;;;;5.82;4.65;;;;;;;16.37;79.19;100168.19;4979733;28;20042;-84
2021/08/02 04:54:33;;;;;;;8.05;4.72;;;;;;;16.38;79.50;100180.59;4975341;28;20041;-83
2021/08/02 04:56:59;;;;;;;7.13;4.47;;;;;;;16.35;79.78;100170.06;4980834;28;20101;-83
2021/08/02 04:59:24;;;;;;;6.15;4.55;;;;;;;16.32;79.76;100180.78;4970058;28;20070;-84
2021/08/02 05:01:49;;;;;;;9.13;5.05;;;;;;;16.35;79.85;100180.72;4989828;28;20035;-84
2021/08/02 05:04:14;;;;;;;8.15;4.50;;;;;;;16.37;79.76;100174.41;4991421;28;20023;-85
2021/08/02 05:06:40;;;;;;;7.72;4.03;;;;;;;16.46;79.14;100178.53;4971248;28;20031;-84
2021/08/02 05:09:05;;;;;;;7.70;4.68;;;;;;;16.54;78.87;100181.78;4957488;28;20027;-84
2021/08/02 05:11:30;;;;;;;7.05;3.83;;;;;;;16.57;78.90;100180.78;4953123;28;20521;-85
2021/08/02 05:13:56;;;;;;;6.90;3.78;;;;;;;16.53;78.96;100187.16;4989248;28;20408;-85
2021/08/02 05:16:21;;;;;;;7.13;3.83;;;;;;;16.52;78.83;100183.63;4988367;28;20038;-84
2021/08/02 05:18:46;;;;;;;7.15;4.00;;;;;;;16.57;78.30;100196.78;4973280;28;20041;-84
2021/08/02 05:21:12;;;;;;;6.95;3.90;;;;;;;16.59;78.69;100201.13;4968247;28;20054;-84
2021/08/02 05:23:37;;;;;;;5.88;3.72;;;;;;;16.65;78.33;100194.69;4989505;28;20030;-85
2021/08/02 05:26:03;;;;;;;5.05;3.22;;;;;;;16.68;78.29;100191.06;4987455;28;20493;-85
2021/08/02 05:28:28;;;;;;;5.55;3.90;;;;;;;16.74;78.28;100188.16;4989854;28;20085;-84
2021/08/02 05:30:53;;;;;;;5.32;4.03;;;;;;;16.72;77.87;100184.69;4989084;28;20039;-85
2021/08/02 05:33:19;;;;;;;5.60;3.58;;;;;;;16.75;77.86;100192.56;4988337;28;20034;-84
2021/08/02 05:35:44;;;;;;;4.60;3.42;;;;;;;16.86;77.57;100193.06;4969829;28;20045;-84
2021/08/02 05:38:10;;;;;;;5.22;3.90;;;;;;;16.86;77.11;100195.75;4990038;28;20102;-84
2021/08/02 05:40:35;;;;;;;5.30;3.95;;;;;;;16.75;77.95;100198.78;4988968;28;20130;-84
2021/08/02 05:43:00;;;;;;;6.85;4.03;;;;;;;16.71;78.18;100201.59;4988365;28;20110;-84
2021/08/02 05:45:26;;;;;;;5.00;3.53;;;;;;;16.69;77.91;100196.34;4990130;28;20038;-84
2021/08/02 05:47:52;;;;;;;6.32;3.88;;;;;;;16.69;78.11;100200.78;4974087;28;20065;-84
2021/08/02 05:50:18;;;;;;;8.27;4.63;;;;;;;16.71;78.40;100199.78;4971926;28;20044;-84
2021/08/02 05:52:43;;;;;;;5.32;3.90;;;;;;;16.65;78.76;100198.22;4990998;28;20128;-84
2021/08/02 05:55:09;;;;;;;4.68;3.42;;;;;;;16.67;78.93;100202.66;4987872;28;20073;-84
2021/08/02 05:57:34;;;;;;;8.20;4.20;;;;;;;16.75;78.62;100204.09;4989918;28;20406;-84
2021/08/02 06:00:00;;;;;;;5.00;3.72;;;;;;;16.63;78.89;100200.06;4972377;28;20125;-84
2021/08/02 06:02:26;;;;;;;6.15;4.25;;;;;;;16.67;78.93;100213.31;4969641;28;20140;-84
2021/08/02 06:04:51;;;;;;;6.38;4.38;;;;;;;16.55;79.59;100204.81;4989928;28;20521;-84
2021/08/02 06:07:16;;;;;;;6.35;3.80;;;;;;;16.65;79.41;100210.69;4952141;28;20477;-85
2021/08/02 06:09:42;;;;;;;5.07;3.60;;;;;;;16.70;78.75;100208.72;4989365;28;20057;-84
2021/08/02 06:12:09;;;;;;;5.93;4.18;;;;;;;16.81;78.66;100208.38;4970782;28;20041;-84
2021/08/02 06:14:34;;;;;;;6.85;4.43;;;;;;;16.94;78.40;100214.09;4987195;28;20038;-84
2021/08/02 06:16:59;;;;;;;7.55;4.40;;;;;;;17.06;78.44;100213.66;4987794;28;20053;-84
2021/08/02 06:19:25;;;;;;;8.73;4.93;;;;;;;17.14;78.03;100214.22;4989485;28;20035;-84
2021/08/02 06:21:50;;;;;;;6.97;5.00;;;;;;;17.32;76.75;100215.31;4987153;28;20034;-85
2021/08/02 06:24:15;;;;;;;5.95;5.00;;;;;;;17.32;76.57;100218.00;4968800;28;20031;-84
2021/08/02 06:26:41;;;;;;;6.50;5.43;;;;;;;17.41;77.10;100217.63;4955084;28;20121;-84
2021/08/02 06:29:06;;;;;;;7.22;5.40;;;;;;;17.60;75.96;100216.88;4967873;28;20051;-85
2021/08/02 06:31:32;;;;;;;7.32;5.90;;;;;;;17.67;76.07;100218.38;4990775;28;20424;-85
2021/08/02 06:33:57;;;;;;;7.72;6.53;;;;;;;17.66;74.49;100220.19;4987740;28;20038;-84
2021/08/02 06:36:22;;;;;;;8.32;7.15;;;;;;;17.51;74.93;100219.00;4988725;28;20034;-84
2021/08/02 06:38:48;;;;;;;6.95;5.93;;;;;;;17.45;74.49;100215.72;4969548;28;20043;-84
2021/08/02 06:41:14;;;;;;;8.07;6.40;;;;;;;17.41;74.70;100227.41;4989821;28;20034;-85
2021/08/02 06:43:40;;;;;;;9.68;6.93;;;;;;;17.37;74.55;100231.13;4983438;28;20043;-85
2021/08/02 06:46:07;;;;;;;7.20;6.30;;;;;;;17.29;74.40;100228.75;4970863;28;20449;-84
2021/08/02 06:48:33;;;;;;;8.90;6.13;;;;;;;17.31;74.19;100226.91;4970798;28;20038;-85
2021/08/02 06:50:58;;;;;;;7.82;5.70;;;;;;;17.45;74.36;100239.72;4990571;28;20038;-85
2021/08/02 06:53:24;;;;;;;6.50;5.20;;;;;;;17.50;73.71;100230.59;4990538;28;20034;-85
2021/08/02 06:55:49;;;;;;;10.77;5.63;;;;;;;17.68;72.36;100239.69;4990863;28;20033;-84
2021/08/02 06:58:16;;;;;;;8.95;4.68;;;;;;;17.86;71.98;100234.53;4987294;28;20034;-85
2021/08/02 07:00:41;;;;;;;7.40;4.75;;;;;;;17.71;71.59;100244.91;4990264;28;20038;-84
2021/08/02 07:03:06;;;;;;;5.72;4.78;;;;;;;17.73;72.21;100247.47;4952089;28;20042;-84
2021/08/02 07:05:32;;;;;;;6.25;4.25;;;;;;;17.70;70.24;100242.28;4988582;28;20046;-85
2021/08/02 07:07:57;;;;;;;6.93;4.18;;;;;;;17.61;70.93;100240.84;4987519;28;20035;-84
2021/08/02 07:10:22;;;;;;;6.88;4.53;;;;;;;17.81;71.25;100244.53;4989368;28;20069;-84
2021/08/02 07:12:48;;;;;;;5.22;3.88;;;;;;;17.95;70.04;100255.53;4988455;28;20042;-84
2021/08/02 07:15:13;;;;;;;6.18;4.38;;;;;;;18.11;68.88;100258.44;4987629;28;20101;-84
2021/08/02 07:17:38;;;;;;;6.30;3.60;;;;;;;18.26;69.21;100255.13;4989472;28;20046;-84
2021/08/02 07:20:04;;;;;;;5.78;3.70;;;;;;;18.42;66.91;100262.47;4969415;28;20038;-84
2021/08/02 07:22:30;;;;;;;5.80;3.10;;;;;;;18.46;66.16;100258.75;4988564;28;20470;-85
2021/08/02 07:24:55;;;;;;;5.40;3.38;;;;;;;18.44;65.44;100257.94;4987670;28;20029;-85
2021/08/02 07:27:20;;;;;;;6.07;3.22;;;;;;;18.46;65.29;100256.94;4989904;28;20485;-84
2021/08/02 07:29:46;;;;;;;5.43;3.05;;;;;;;18.62;65.40;100263.34;4987209;28;20081;-84
2021/08/02 07:32:11;;;;;;;4.85;2.90;;;;;;;18.71;65.20;100267.44;4973571;28;20042;-85
2021/08/02 07:34:36;;;;;;;4.50;3.10;;;;;;;18.75;64.83;100255.69;4987173;28;20047;-84
2021/08/02 07:37:03;;;;;;;5.63;3.03;;;;;;;18.96;64.61;100263.69;4989808;28;20042;-85
2021/08/02 07:39:29;;;;;;;4.50;3.35;;;;;;;18.97;64.12;100257.44;4970499;28;20056;-84
2021/08/02 07:41:54;;;;;;;5.57;3.65;;;;;;;18.90;63.83;100269.34;4987411;28;20493;-84
2021/08/02 07:44:19;;;;;;;5.72;3.38;;;;;;;18.69;64.30;100263.97;4987539;28;20035;-84
2021/08/02 07:46:45;;;;;;;6.20;3.47;;;;;;;18.44;65.99;100268.63;4984848;28;20117;-84
2021/08/02 07:49:10;;;;;;;5.72;3.15;;;;;;;18.36;66.35;100277.81;4989934;28;20062;-85
2021/08/02 07:51:35;;;;;;;5.18;2.95;;;;;;;18.39;65.81;100275.06;4988288;28;20046;-84
2021/08/02 07:54:02;;;;;;;4.57;3.10;;;;;;;18.34;66.05;100279.72;4990079;28;20049;-85
2021/08/02 07:56:29;;;;;;;5.13;3.17;;;;;;;18.40;66.47;100276.78;4989916;28;20042;-84
2021/08/02 07:58:54;;;;;;;5.15;3.28;;;;;;;18.48;65.83;100272.91;4966495;28;20078;-85
2021/08/02 08:01:20;;;;;;;4.18;2.97;;;;;;;18.87;65.57;100266.81;4988051;28;20459;-84
2021/08/02 08:03:45;;;;;;;4.20;2.60;;;;;;;19.19;63.89;100268.88;4954126;28;20062;-84
2021/08/02 08:06:10;;;;;;;6.70;2.78;;;;;;;19.13;62.28;100284.34;4985079;28;20041;-84
2021/08/02 08:08:36;;;;;;;4.82;2.45;;;;;;;19.16;63.12;100273.50;4972058;28;20046;-84
2021/08/02 08:11:01;;;;;;;7.18;2.65;;;;;;;19.37;61.85;100271.66;4951107;28;20043;-84
2021/08/02 08:13:26;;;;;;;5.00;2.50;;;;;;;19.32;62.71;100277.19;4986913;28;20038;-84
2021/08/02 08:15:52;;;;;;;4.65;2.30;;;;;;;19.23;61.23;100286.53;4969496;28;20524;-85
2021/08/02 08:18:17;;;;;;;6.15;2.50;;;;;;;19.20;60.70;100273.31;4971362;28;20515;-84
2021/08/02 08:20:42;;;;;;;3.88;2.10;;;;;;;19.43;59.84;100287.41;4988469;28;20494;-84
2021/08/02 08:23:08;;;;;;;3.78;2.17;;;;;;;19.57;59.99;100290.31;4987386;28;20062;-84
2021/08/02 08:25:33;;;;;;;4.60;2.45;;;;;;;19.61;59.10;100281.19;4989720;28;20045;-84
2021/08/02 08:27:58;;;;;;;3.67;1.90;;;;;;;19.75;58.57;100277.00;4987541;28;20125;-84
2021/08/02 08:30:24;;;;;;;4.10;2.00;;;;;;;19.76;59.04;100268.91;4989072;28;20038;-84
2021/08/02 08:32:50;;;;;;;4.53;1.92;;;;;;;19.92;57.62;100277.06;4974087;28;20089;-84
2021/08/02 08:35:15;;;;;;;4.82;2.05;;;;;;;19.66;58.52;100272.94;4986628;28;20445;-84
2021/08/02 08:37:41;;;;;;;4.00;1.77;;;;;;;19.52;58.55;100281.63;4990071;28;20034;-84
2021/08/02 08:40:08;;;;;;;4.43;1.92;;;;;;;19.60;59.32;100282.13;4983399;28;20508;-85
2021/08/02 08:42:34;;;;;;;3.42;2.00;;;;;;;19.66;59.50;100289.91;4986081;28;20045;-84
2021/08/02 08:44:59;;;;;;;5.38;2.45;;;;;;;19.74;59.52;100280.63;4968068;28;20038;-84
2021/08/02 08:47:25;;;;;;;5.05;2.50;;;;;;;19.94;58.26;100280.53;4972478;28;20035;-85
2021/08/02 08:49:51;;;;;;;6.10;2.05;;;;;;;19.95;56.68;100284.09;4972651;28;20034;-85
2021/08/02 08:52:17;;;;;;;3.92;1.83;;;;;;;19.89;57.59;100280.75;4975575;28;20031;-84
2021/08/02 08:54:42;;;;;;;4.22;2.00;;;;;;;19.81;56.72;100303.50;4978385;28;20446;-84
2021/08/02 08:57:09;;;;;;;4.00;2.00;;;;;;;19.36;57.34;100294.88;4991678;28;20109;-84
2021/08/02 08:59:49;;;;;;;4.53;2.33;;;;;;;19.25;58.51;100294.47;4978660;28;20061;-84
2021/08/02 09:02:23;;;;;;;4.75;2.10;;;;;;;19.25;58.34;100295.34;4991676;28;20045;-84
2021/08/02 09:05:00;;;;;;;4.20;1.92;;;;;;;19.33;57.82;100291.44;4995794;28;20030;-84
2021/08/02 09:07:37;;;;;;;3.80;1.80;;;;;;;19.48;58.21;100296.09;4991905;28;20658;-84
2021/08/02 09:10:05;;;;;;;4.38;2.13;;;;;;;19.73;57.60;100286.91;4991575;28;20038;-84
2021/08/02 09:12:32;;;;;;;6.40;2.78;;;;;;;20.01;56.74;100281.97;4973868;28;20129;-85
2021/08/02 09:15:05;;;;;;;4.80;2.10;;;;;;;20.42;54.96;100276.34;4972968;28;20045;-84
2021/08/02 09:18:12;;;;;;;4.22;2.08;;;;;;;21.04;54.45;100281.22;5027756;23;20050;-83
2021/08/02 09:21:47;;;;;;;4.47;2.15;;;;;;;21.12;55.56;100273.63;4908477;29;20103;-84
2021/08/02 09:25:21;;;;;;;3.00;2.00;;;;;;;20.66;53.77;100282.28;4992303;28;20057;-84
2021/08/02 09:28:35;;;;;;;;;;;;;;;20.43;55.49;100282.56;4927056;29;20079;-84
2021/08/02 09:31:03;;;;;;;3.60;2.17;;;;;;;20.27;54.16;100282.47;4873531;28;19939;-83
2021/08/02 09:33:44;;;;;;;3.28;2.08;;;;;;;20.54;55.20;100286.50;4977267;28;20034;-84
2021/08/02 09:36:09;;;;;;;3.78;2.30;;;;;;;20.51;54.19;100288.41;4993526;28;20077;-84
2021/08/02 09:38:35;;;;;;;3.75;1.98;;;;;;;20.48;55.96;100285.88;4996180;28;20035;-83
2021/08/02 09:41:00;;;;;;;3.60;2.28;;;;;;;20.71;54.32;100284.75;4979284;28;20038;-84
2021/08/02 09:43:28;;;;;;;6.22;2.42;;;;;;;20.98;53.30;100275.22;4977401;28;20049;-84
2021/08/02 09:45:58;;;;;;;4.72;2.45;;;;;;;20.98;51.64;100274.34;4990165;28;20205;-83
2021/08/02 09:48:36;;;;;;;4.28;2.08;;;;;;;20.49;51.65;100279.59;4972258;28;20045;-84
2021/08/02 09:51:13;;;;;;;3.38;2.03;;;;;;;20.49;52.70;100284.97;4988449;28;20038;-84
2021/08/02 09:53:42;;;;;;;4.15;1.80;;;;;;;20.44;54.25;100282.50;4970622;28;20391;-84
2021/08/02 09:56:10;;;;;;;3.72;2.20;;;;;;;20.36;52.71;100292.75;4973903;28;20074;-81
2021/08/02 09:58:36;;;;;;;6.18;2.97;;;;;;;20.29;53.38;100284.13;4992033;28;20489;-84
2021/08/02 10:01:01;;;;;;;3.92;1.70;;;;;;;20.55;53.30;100285.53;4990587;28;20037;-83
2021/08/02 10:03:29;;;;;;;3.17;1.52;;;;;;;20.54;53.23;100286.50;4992089;28;20038;-85
2021/08/02 10:05:55;;;;;;;3.55;1.63;;;;;;;20.55;53.03;100290.03;4979575;28;20034;-84
2021/08/02 10:08:21;;;;;;;4.05;1.90;;;;;;;20.29;51.62;100280.59;4995816;28;20034;-84
2021/08/02 10:10:46;;;;;;;2.92;1.50;;;;;;;20.34;52.17;100290.13;4995750;28;20030;-84
2021/08/02 10:13:21;;;;;;;3.80;1.83;;;;;;;20.52;51.45;100290.16;4989627;28;20464;-84
2021/08/02 10:16:01;;;;;;;3.92;1.60;;;;;;;20.97;51.09;100292.28;4970825;28;20540;-84
2021/08/02 10:18:29;;;;;;;5.13;2.22;;;;;;;21.02;50.77;100290.22;4990134;28;20046;-84
2021/08/02 10:21:11;;;;;;;3.28;1.70;;;;;;;21.09;49.18;100285.41;4995302;28;20035;-83
2021/08/02 10:23:40;;;;;;;5.18;1.90;;;;;;;21.22;50.14;100286.47;4985905;28;20124;-83
2021/08/02 10:26:17;;;;;;;3.78;1.73;;;;;;;21.63;48.88;100296.75;4994699;28;20102;-83
2021/08/02 10:28:54;;;;;;;4.18;1.58;;;;;;;21.62;48.72;100292.34;4996418;28;20092;-83
2021/08/02 10:31:20;;;;;;;3.33;1.80;;;;;;;21.75;49.07;100297.91;4994494;28;20038;-84
2021/08/02 10:33:45;;;;;;;6.07;1.80;;;;;;;21.93;48.53;100293.31;4979497;28;20049;-83
2021/08/02 10:36:19;;;;;;;3.58;1.73;;;;;;;22.11;46.99;100296.75;4978463;28;20046;-83
2021/08/02 10:38:52;;;;;;;3.10;1.27;;;;;;;21.78;48.14;100300.41;4997320;28;20034;-83
2021/08/02 10:41:30;;;;;;;3.15;1.48;;;;;;;21.71;48.93;100293.66;4977230;28;20037;-83
2021/08/02 10:43:56;;;;;;;4.65;1.65;;;;;;;21.92;48.89;100286.19;4996733;28;20057;-83
2021/08/02 10:46:27;;;;;;;3.72;1.60;;;;;;;21.69;48.49;100295.56;4994388;28;20026;-83
2021/08/02 10:49:22;;;;;;;3.05;1.48;;;;;;;21.51;48.99;100288.53;4991900;28;20034;-82
2021/08/02 10:51:50;;;;;;;2.17;1.20;;;;;;;21.26;48.87;100295.22;4980730;28;20042;-81
2021/08/02 10:54:17;;;;;;;3.55;1.27;;;;;;;21.30;50.03;100286.06;4999287;28;20105;-83
2021/08/02 10:56:48;;;;;;;4.13;1.60;;;;;;;21.49;49.11;100298.50;4996784;28;20022;-82
2021/08/02 10:59:13;;;;;;;3.53;1.20;;;;;;;21.69;48.01;100300.91;4993232;28;20053;-82
2021/08/02 11:01:46;;;;;;;4.07;1.60;;;;;;;21.93;47.45;100293.31;4977496;28;20293;-84
2021/08/02 11:06:40;;;;;;;4.47;1.67;;;;;;;22.05;47.67;100287.22;4954760;29;20107;-83
2021/08/02 11:09:06;;;;;;;3.33;1.45;;;;;;;22.47;47.89;100291.06;4917839;29;20483;-83
2021/08/02 11:11:37;;;;;;;3.35;1.40;;;;;;;22.72;46.31;100292.31;4949062;29;20043;-83
2021/08/02 11:14:11;;;;;;;2.58;1.00;;;;;;;22.73;45.31;100284.13;4947911;29;20058;-83
2021/08/02 11:16:43;;;;;;;4.72;1.25;;;;;;;22.70;45.00;100288.84;4938355;29;20078;-83
2021/08/02 11:19:18;;;;;;;;;;;;;;;22.63;46.04;100282.09;4938556;29;20060;-83
2021/08/02 11:21:45;;;;;;;2.92;1.17;;;;;;;22.83;45.09;100288.97;4933363;29;19919;-84
2021/08/02 11:24:12;;;;;;;2.42;1.13;;;;;;;22.72;45.81;100281.56;4940221;29;20042;-83
2021/08/02 11:27:05;;;;;;;3.75;1.60;;;;;;;22.95;45.64;100288.19;4922095;29;20466;-83
2021/08/02 11:29:33;;;;;;;3.40;1.10;;;;;;;22.41;45.36;100290.59;4932810;29;20044;-83
2021/08/02 11:32:08;;;;;;;2.63;1.30;;;;;;;22.26;45.14;100289.66;4958020;29;20050;-83
2021/08/02 11:34:34;;;;;;;2.78;1.35;;;;;;;22.51;44.74;100283.72;4952832;29;20114;-83
2021/08/02 11:37:09;;;;;;;3.60;1.13;;;;;;;22.51;45.08;100278.34;4954953;29;20049;-83
2021/08/02 11:39:40;;;;;;;4.00;1.10;;;;;;;22.31;44.87;100287.56;4931220;29;20048;-83
2021/08/02 11:42:06;;;;;;;2.97;0.98;;;;;;;21.99;44.92;100292.09;4948449;29;20464;-83